createdAt,value
2023-02-05T00:04:40.102Z,19.3
2023-02-05T00:10:18.574Z,19.3
2023-02-05T00:15:40.939Z,19.3
2023-02-05T00:21:18.775Z,19.2
2023-02-05T00:26:57.796Z,19.2
2023-02-05T00:32:36.519Z,19.1
2023-02-05T00:38:14.542Z,19.1
2023-02-05T00:43:53.126Z,19.1
2023-02-05T00:49:30.752Z,19.1
2023-02-05T00:55:09.369Z,19
2023-02-05T01:00:48.806Z,19
2023-02-05T01:06:26.214Z,19
2023-02-05T01:12:03.782Z,18.9
2023-02-05T01:17:42.219Z,18.9
2023-02-05T01:23:20.245Z,18.9
2023-02-05T01:28:58.590Z,18.9
2023-02-05T01:34:37.863Z,18.9
2023-02-05T01:40:15.544Z,18.8
2023-02-05T01:45:37.899Z,18.8
2023-02-05T01:51:30.628Z,18.8
2023-02-05T01:57:07.948Z,18.8
2023-02-05T02:02:44.575Z,18.8
2023-02-05T02:08:23.560Z,18.8
2023-02-05T02:14:01.313Z,18.8
2023-02-05T02:19:38.525Z,18.8
2023-02-05T02:25:16.894Z,18.8
2023-02-05T02:30:40.194Z,18.8
2023-02-05T02:36:18.321Z,18.9
2023-02-05T02:41:41.205Z,19
2023-02-05T02:47:19.647Z,19.1
2023-02-05T02:52:26.174Z,19.1
2023-02-05T02:57:49.247Z,19.3
2023-02-05T03:03:32.171Z,19.4
2023-02-05T03:08:39.308Z,19.6
2023-02-05T03:13:46.799Z,19.7
2023-02-05T03:19:09.314Z,19.9
2023-02-05T03:24:31.592Z,20
2023-02-05T03:30:10.141Z,20.2
2023-02-05T03:35:32.917Z,20.3
2023-02-05T03:41:10.983Z,20.4
2023-02-05T03:46:49.499Z,20.4
2023-02-05T03:52:33.322Z,20.4
2023-02-05T03:57:54.617Z,20.5
2023-02-05T04:03:32.981Z,20.6
2023-02-05T04:08:55.214Z,20.6
2023-02-05T04:14:18.773Z,20.6
2023-02-05T04:19:41.924Z,20.6
2023-02-05T04:25:04.427Z,20.7
2023-02-05T04:30:42.814Z,20.7
2023-02-05T04:36:21.906Z,20.7
2023-02-05T04:41:59.387Z,20.8
2023-02-05T04:47:21.684Z,20.8
2023-02-05T04:52:59.226Z,20.8
2023-02-05T04:58:37.169Z,20.8
2023-02-05T05:03:59.381Z,20.8
2023-02-05T05:09:37.378Z,20.8
2023-02-05T05:14:59.419Z,20.8
2023-02-05T05:20:38.497Z,20.8
2023-02-05T05:26:16.791Z,20.8
2023-02-05T05:31:54.312Z,20.9
2023-02-05T05:37:32.159Z,20.9
2023-02-05T05:43:10.295Z,20.9
2023-02-05T05:48:48.665Z,20.9
2023-02-05T05:54:25.498Z,20.9
2023-02-05T06:00:04.351Z,20.9
2023-02-05T06:05:41.676Z,20.9
2023-02-05T06:11:19.825Z,20.9
2023-02-05T06:16:45.347Z,20.9
2023-02-05T06:22:23.364Z,20.8
2023-02-05T06:28:00.999Z,20.8
2023-02-05T06:33:39.925Z,20.8
2023-02-05T06:39:32.102Z,20.8
2023-02-05T06:45:10.657Z,20.8
2023-02-05T06:50:49.105Z,20.8
2023-02-05T06:56:11.513Z,20.8
2023-02-05T07:01:49.509Z,20.8
2023-02-05T07:07:27.999Z,20.8
2023-02-05T07:12:51.131Z,20.8
2023-02-05T07:18:29.020Z,20.7
2023-02-05T07:23:51.860Z,20.6
2023-02-05T07:29:29.703Z,20.6
2023-02-05T07:35:08.057Z,20.6
2023-02-05T07:40:31.362Z,20.6
2023-02-05T07:45:54.111Z,20.6
2023-02-05T07:51:32.720Z,20.6
2023-02-05T07:57:10.784Z,20.5
2023-02-05T08:03:02.802Z,20.5
2023-02-05T08:08:41.700Z,20.5
2023-02-05T08:14:20.932Z,20.4
2023-02-05T08:20:05.357Z,20.4
2023-02-05T08:25:43.370Z,20.4
2023-02-05T08:31:21.664Z,20.4
2023-02-05T08:36:44.411Z,20.4
2023-02-05T08:42:06.719Z,20.4
2023-02-05T08:47:56.449Z,20.3
2023-02-05T08:53:36.009Z,20.4
2023-02-05T08:59:15.026Z,20.3
2023-02-05T09:04:59.043Z,20.3
2023-02-05T09:23:24.902Z,20.3
2023-02-05T09:29:03.786Z,20.3
2023-02-05T09:34:42.024Z,20.3
2023-02-05T09:41:24.513Z,20.3
2023-02-05T09:47:04.056Z,20.3
2023-02-05T09:52:43.009Z,20.3
2023-02-05T09:58:23.035Z,20.3
2023-02-05T10:04:07.871Z,20.3
2023-02-05T10:09:44.898Z,20.3
2023-02-05T10:15:07.024Z,20.2
2023-02-05T10:20:46.103Z,20.2
2023-02-05T10:26:23.922Z,20.2
2023-02-05T10:32:02.859Z,20.2
2023-02-05T10:37:41.725Z,20.2
2023-02-05T10:43:03.235Z,20.2
2023-02-05T10:48:44.706Z,20.1
2023-02-05T10:54:23.182Z,20.1
2023-02-05T11:00:00.527Z,20.1
2023-02-05T11:05:39.234Z,20.1
2023-02-05T11:11:02.496Z,20.1
2023-02-05T11:16:41.606Z,20.1
2023-02-05T11:22:19.863Z,20.1
2023-02-05T11:27:58.587Z,20.1
2023-02-05T11:34:01.575Z,20.1
2023-02-05T11:39:24.320Z,20.1
2023-02-05T11:45:03.589Z,20.1
2023-02-05T11:50:25.756Z,20.1
2023-02-05T11:56:04.173Z,20.1
2023-02-05T12:01:53.807Z,20.1
2023-02-05T12:07:31.634Z,20.1
2023-02-05T12:13:09.551Z,20.1
2023-02-05T12:18:50.776Z,20.1
2023-02-05T12:24:27.693Z,20.1
2023-02-05T12:29:50.822Z,20
2023-02-05T12:35:30.292Z,20
2023-02-05T12:41:06.085Z,20
2023-02-05T12:46:44.697Z,20.1
2023-02-05T12:52:22.804Z,20
2023-02-05T12:58:00.189Z,20
2023-02-05T13:03:38.325Z,20
2023-02-05T13:09:17.209Z,20
2023-02-05T13:14:55.592Z,20
2023-02-05T13:20:34.007Z,20
2023-02-05T13:26:19.499Z,20
2023-02-05T13:31:59.976Z,20
2023-02-05T13:37:40.276Z,20
2023-02-05T13:43:22.148Z,20
2023-02-05T13:49:01.893Z,19.9
2023-02-05T13:54:40.005Z,19.9
2023-02-05T14:00:03.122Z,19.9
2023-02-05T14:05:41.670Z,19.9
2023-02-05T14:11:25.675Z,19.9
2023-02-05T14:17:10.205Z,19.9
2023-02-05T14:22:47.979Z,19.9
2023-02-05T14:28:13.584Z,19.9
2023-02-05T14:33:38.719Z,19.9
2023-02-05T14:39:27.164Z,19.9
2023-02-05T14:44:55.726Z,19.9
2023-02-05T14:50:34.442Z,19.9
2023-02-05T14:55:56.758Z,19.9
2023-02-05T15:01:35.330Z,19.9
2023-02-05T15:06:45.365Z,19.9
2023-02-05T15:12:23.407Z,19.8
2023-02-05T15:18:01.818Z,19.8
2023-02-05T15:23:30.521Z,19.8
2023-02-05T15:29:09.087Z,19.8
2023-02-05T15:34:31.878Z,19.8
2023-02-05T15:40:10.156Z,19.8
2023-02-05T15:45:47.887Z,19.8
2023-02-05T15:51:25.636Z,19.8
2023-02-05T15:57:03.699Z,19.8
2023-02-05T16:02:26.763Z,19.8
2023-02-05T16:07:49.517Z,19.8
2023-02-05T16:13:28.316Z,19.8
2023-02-05T16:18:51.140Z,19.8
2023-02-05T16:24:29.255Z,19.8
2023-02-05T16:30:04.711Z,19.8
2023-02-05T16:35:43.675Z,19.8
2023-02-05T16:41:06.478Z,19.7
2023-02-05T16:46:44.937Z,19.7
2023-02-05T16:52:23.076Z,19.7
2023-02-05T16:57:45.705Z,19.8
2023-02-05T17:03:25.449Z,19.7
2023-02-05T17:08:47.818Z,19.8
2023-02-05T17:14:11.122Z,19.7
2023-02-05T17:19:49.853Z,19.7
2023-02-05T17:25:11.861Z,19.7
2023-02-05T17:30:50.587Z,19.7
2023-02-05T17:36:29.075Z,19.7
2023-02-05T17:42:09.844Z,19.6
2023-02-05T17:47:51.208Z,19.7
2023-02-05T17:53:29.835Z,20.3
2023-02-05T17:58:36.868Z,20.9
2023-02-05T18:03:59.605Z,21.3
2023-02-05T18:09:38.677Z,21.7
2023-02-05T18:15:00.964Z,22
2023-02-05T18:20:23.864Z,22.3
2023-02-05T18:26:03.230Z,22.4
2023-02-05T18:31:29.475Z,22.6
2023-02-05T18:36:51.928Z,22.7
2023-02-05T18:42:32.106Z,22.8
2023-02-05T18:47:54.864Z,22.9
2023-02-05T18:53:35.409Z,22.8
2023-02-05T18:58:58.416Z,22.8
2023-02-05T19:04:21.047Z,22.6
2023-02-05T19:09:58.845Z,22.6
2023-02-05T19:15:38.895Z,22.5
2023-02-05T19:21:19.188Z,22.4
2023-02-05T19:26:56.273Z,22.3
2023-02-05T19:32:35.957Z,22.2
2023-02-05T19:38:14.110Z,22.1
2023-02-05T19:43:51.653Z,22
2023-02-05T19:49:15.147Z,21.9
2023-02-05T19:54:54.779Z,21.9
2023-02-05T20:00:17.430Z,21.8
2023-02-05T20:05:42.462Z,21.8
2023-02-05T20:11:20.644Z,21.6
2023-02-05T20:16:59.496Z,21.6
2023-02-05T20:22:52.093Z,21.5
2023-02-05T20:28:30.702Z,21.4
2023-02-05T20:34:09.144Z,21.4
2023-02-05T20:39:47.645Z,21.3
2023-02-05T20:45:26.210Z,21.3
2023-02-05T20:51:03.295Z,21.3
2023-02-05T20:56:41.284Z,21.2
2023-02-05T21:07:59.268Z,21.1
2023-02-05T21:13:37.582Z,21
2023-02-05T21:19:00.347Z,21
2023-02-05T21:24:22.986Z,21
2023-02-05T21:29:47.258Z,20.9
2023-02-05T21:35:25.539Z,20.9
2023-02-05T21:40:59.895Z,20.9
2023-02-05T21:46:38.329Z,20.9
2023-02-05T21:52:00.701Z,20.9
2023-02-05T21:57:38.656Z,20.8
2023-02-05T22:03:01.771Z,20.8
2023-02-05T22:08:11.550Z,20.8
2023-02-05T22:13:33.797Z,20.8
2023-02-05T22:19:12.436Z,20.8
2023-02-05T22:24:50.473Z,20.8
2023-02-05T22:30:29.280Z,20.8
2023-02-05T22:35:53.174Z,20.8
2023-02-05T22:41:31.312Z,20.8
2023-02-05T22:47:09.361Z,20.7
2023-02-05T22:52:31.980Z,20.7
2023-02-05T22:58:10.071Z,20.7
2023-02-05T23:03:51.362Z,20.6
2023-02-05T23:09:14.101Z,20.6
2023-02-05T23:14:39.010Z,20.6
2023-02-05T23:20:16.737Z,20.6
2023-02-05T23:25:55.029Z,20.6
2023-02-05T23:31:18.230Z,20.6
2023-02-05T23:36:56.542Z,20.6
2023-02-05T23:42:34.760Z,20.5
2023-02-05T23:48:12.300Z,20.5
2023-02-05T23:53:50.211Z,20.5
2023-02-05T23:59:30.728Z,20.4
